sensor_id;sensor_type;location;lat;lon;timestamp;pressure;altitude;pressure_sealevel;temperature;humidity
17785;BME280;9016;53.582;10.062;2023-03-01T00:01:21;103135.84;;;4.12;63.66
17785;BME280;9016;53.582;10.062;2023-03-01T00:03:50;103123.53;;;4.07;64.42
17785;BME280;9016;53.582;10.062;2023-03-01T00:06:19;103132.34;;;4.09;64.41
17785;BME280;9016;53.582;10.062;2023-03-01T00:08:47;103131.41;;;4.00;64.35
17785;BME280;9016;53.582;10.062;2023-03-01T00:11:17;103124.38;;;3.99;65.09
17785;BME280;9016;53.582;10.062;2023-03-01T00:13:50;103127.06;;;4.07;64.33
17785;BME280;9016;53.582;10.062;2023-03-01T00:16:20;103127.88;;;3.95;64.92
17785;BME280;9016;53.582;10.062;2023-03-01T00:18:48;103114.72;;;4.00;64.53
17785;BME280;9016;53.582;10.062;2023-03-01T00:21:17;103110.28;;;3.99;64.74
17785;BME280;9016;53.582;10.062;2023-03-01T00:23:49;103115.56;;;4.00;64.66
17785;BME280;9016;53.582;10.062;2023-03-01T00:26:19;103122.63;;;4.03;64.84
17785;BME280;9016;53.582;10.062;2023-03-01T00:28:48;103112.94;;;3.99;64.43
17785;BME280;9016;53.582;10.062;2023-03-01T00:31:18;103112.06;;;4.04;64.68
17785;BME280;9016;53.582;10.062;2023-03-01T00:33:47;103118.25;;;4.05;64.42
17785;BME280;9016;53.582;10.062;2023-03-01T00:36:15;103118.22;;;3.99;65.01
17785;BME280;9016;53.582;10.062;2023-03-01T00:38:45;103112.06;;;4.01;64.36
17785;BME280;9016;53.582;10.062;2023-03-01T00:41:14;103111.19;;;4.02;64.46
17785;BME280;9016;53.582;10.062;2023-03-01T00:43:43;103111.22;;;4.07;64.89
17785;BME280;9016;53.582;10.062;2023-03-01T00:46:14;103112.94;;;4.00;64.67
17785;BME280;9016;53.582;10.062;2023-03-01T00:48:43;103116.47;;;3.99;65.54
17785;BME280;9016;53.582;10.062;2023-03-01T00:51:14;103112.03;;;3.98;65.91
17785;BME280;9016;53.582;10.062;2023-03-01T00:53:43;103112.06;;;4.06;65.53
17785;BME280;9016;53.582;10.062;2023-03-01T00:56:13;103111.25;;;4.15;65.13
17785;BME280;9016;53.582;10.062;2023-03-01T00:58:41;103113.00;;;4.17;64.80
17785;BME280;9016;53.582;10.062;2023-03-01T01:01:11;103107.72;;;4.17;64.93
17785;BME280;9016;53.582;10.062;2023-03-01T01:03:48;103108.59;;;4.07;65.17
17785;BME280;9016;53.582;10.062;2023-03-01T01:06:18;103105.03;;;4.00;64.90
17785;BME280;9016;53.582;10.062;2023-03-01T01:08:47;103099.75;;;4.00;64.93
17785;BME280;9016;53.582;10.062;2023-03-01T01:11:15;103103.28;;;3.96;64.71
17785;BME280;9016;53.582;10.062;2023-03-01T01:13:44;103103.19;;;3.86;64.78
17785;BME280;9016;53.582;10.062;2023-03-01T01:16:13;103101.41;;;3.77;65.17
17785;BME280;9016;53.582;10.062;2023-03-01T01:18:41;103100.56;;;3.80;65.69
17785;BME280;9016;53.582;10.062;2023-03-01T01:21:12;103096.13;;;3.82;65.54
17785;BME280;9016;53.582;10.062;2023-03-01T01:23:41;103094.44;;;3.85;64.93
17785;BME280;9016;53.582;10.062;2023-03-01T01:26:13;103104.03;;;3.82;65.89
17785;BME280;9016;53.582;10.062;2023-03-01T01:28:41;103097.03;;;3.82;65.71
17785;BME280;9016;53.582;10.062;2023-03-01T01:31:09;103099.69;;;3.85;66.23
17785;BME280;9016;53.582;10.062;2023-03-01T01:33:38;103083.03;;;3.91;65.40
17785;BME280;9016;53.582;10.062;2023-03-01T01:36:07;103087.41;;;3.89;65.60
17785;BME280;9016;53.582;10.062;2023-03-01T01:38:37;103083.88;;;3.91;65.27
17785;BME280;9016;53.582;10.062;2023-03-01T01:41:06;103074.25;;;3.98;65.30
17785;BME280;9016;53.582;10.062;2023-03-01T01:43:37;103079.53;;;4.01;65.59
17785;BME280;9016;53.582;10.062;2023-03-01T01:46:06;103080.41;;;4.00;65.24
17785;BME280;9016;53.582;10.062;2023-03-01T01:48:43;103072.50;;;4.03;65.24
17785;BME280;9016;53.582;10.062;2023-03-01T01:51:16;103064.56;;;3.98;65.03
17785;BME280;9016;53.582;10.062;2023-03-01T01:53:50;103069.00;;;4.12;65.09
17785;BME280;9016;53.582;10.062;2023-03-01T01:56:19;103064.63;;;4.15;65.07
17785;BME280;9016;53.582;10.062;2023-03-01T01:58:48;103058.47;;;4.19;64.69
17785;BME280;9016;53.582;10.062;2023-03-01T02:01:22;103056.72;;;4.21;65.17
17785;BME280;9016;53.582;10.062;2023-03-01T02:04:04;103055.00;;;4.29;64.50
17785;BME280;9016;53.582;10.062;2023-03-01T02:06:36;103055.91;;;4.30;64.53
17785;BME280;9016;53.582;10.062;2023-03-01T02:09:14;103051.47;;;4.26;64.92
17785;BME280;9016;53.582;10.062;2023-03-01T02:11:51;103051.47;;;4.26;64.81
17785;BME280;9016;53.582;10.062;2023-03-01T02:14:35;103046.16;;;4.23;64.64
17785;BME280;9016;53.582;10.062;2023-03-01T02:17:03;103050.59;;;4.22;65.11
17785;BME280;9016;53.582;10.062;2023-03-01T02:19:43;103047.06;;;4.34;64.40
17785;BME280;9016;53.582;10.062;2023-03-01T02:22:22;103048.84;;;4.26;64.78
17785;BME280;9016;53.582;10.062;2023-03-01T02:25:05;103050.59;;;4.33;64.81
17785;BME280;9016;53.582;10.062;2023-03-01T02:27:42;103047.94;;;4.24;65.08
17785;BME280;9016;53.582;10.062;2023-03-01T02:30:15;103045.31;;;4.24;65.66
17785;BME280;9016;53.582;10.062;2023-03-01T02:32:48;103039.16;;;4.29;64.87
17785;BME280;9016;53.582;10.062;2023-03-01T02:35:35;103036.53;;;4.29;64.79
17785;BME280;9016;53.582;10.062;2023-03-01T02:38:09;103053.22;;;4.28;64.78
17785;BME280;9016;53.582;10.062;2023-03-01T02:40:37;103049.69;;;4.26;65.61
17785;BME280;9016;53.582;10.062;2023-03-01T02:43:10;103036.53;;;4.28;65.28
17785;BME280;9016;53.582;10.062;2023-03-01T02:45:48;103041.78;;;4.20;65.48
17785;BME280;9016;53.582;10.062;2023-03-01T02:48:19;103040.91;;;4.18;65.71
17785;BME280;9016;53.582;10.062;2023-03-01T02:51:02;103046.19;;;4.27;66.06
17785;BME280;9016;53.582;10.062;2023-03-01T02:53:36;103035.66;;;4.33;65.47
17785;BME280;9016;53.582;10.062;2023-03-01T02:56:10;103027.72;;;4.39;65.55
17785;BME280;9016;53.582;10.062;2023-03-01T02:58:42;103022.47;;;4.36;65.43
17785;BME280;9016;53.582;10.062;2023-03-01T03:01:20;103024.22;;;4.31;65.34
17785;BME280;9016;53.582;10.062;2023-03-01T03:04:00;103036.53;;;4.34;65.47
17785;BME280;9016;53.582;10.062;2023-03-01T03:06:31;103018.91;;;4.27;65.21
17785;BME280;9016;53.582;10.062;2023-03-01T03:09:02;103025.09;;;4.30;65.42
17785;BME280;9016;53.582;10.062;2023-03-01T03:11:31;103024.22;;;4.33;65.93
17785;BME280;9016;53.582;10.062;2023-03-01T03:14:00;103023.34;;;4.35;66.32
17785;BME280;9016;53.582;10.062;2023-03-01T03:19:17;103026.03;;;4.52;66.02
17785;BME280;9016;53.582;10.062;2023-03-01T03:21:48;103020.75;;;4.52;65.05
17785;BME280;9016;53.582;10.062;2023-03-01T03:24:16;103029.50;;;4.52;66.05
17785;BME280;9016;53.582;10.062;2023-03-01T03:26:45;103026.91;;;4.55;65.52
17785;BME280;9016;53.582;10.062;2023-03-01T03:29:13;103017.19;;;4.63;65.17
17785;BME280;9016;53.582;10.062;2023-03-01T03:31:44;103012.81;;;4.67;64.90
17785;BME280;9016;53.582;10.062;2023-03-01T03:34:13;103012.78;;;4.76;63.90
17785;BME280;9016;53.582;10.062;2023-03-01T03:36:44;103011.91;;;4.87;63.52
17785;BME280;9016;53.582;10.062;2023-03-01T03:39:12;103007.50;;;4.97;63.42
17785;BME280;9016;53.582;10.062;2023-03-01T03:41:40;103002.25;;;5.01;62.93
17785;BME280;9016;53.582;10.062;2023-03-01T03:44:09;103011.00;;;5.10;62.91
17785;BME280;9016;53.582;10.062;2023-03-01T03:46:40;103007.47;;;5.17;62.33
17785;BME280;9016;53.582;10.062;2023-03-01T03:49:09;103002.22;;;5.07;62.02
17785;BME280;9016;53.582;10.062;2023-03-01T03:51:37;103002.22;;;5.07;61.42
17785;BME280;9016;53.582;10.062;2023-03-01T03:54:05;103003.13;;;5.05;61.22
17785;BME280;9016;53.582;10.062;2023-03-01T03:56:33;103003.09;;;5.14;61.33
17785;BME280;9016;53.582;10.062;2023-03-01T03:59:01;103000.44;;;5.19;61.34
17785;BME280;9016;53.582;10.062;2023-03-01T04:01:29;103003.97;;;5.13;60.70
17785;BME280;9016;53.582;10.062;2023-03-01T04:03:57;102995.16;;;5.10;61.20
17785;BME280;9016;53.582;10.062;2023-03-01T04:06:35;102998.69;;;5.15;60.47
17785;BME280;9016;53.582;10.062;2023-03-01T04:09:07;102993.41;;;5.18;60.18
17785;BME280;9016;53.582;10.062;2023-03-01T04:11:35;102989.88;;;5.20;60.08
17785;BME280;9016;53.582;10.062;2023-03-01T04:14:04;102988.09;;;5.21;60.54
17785;BME280;9016;53.582;10.062;2023-03-01T04:16:34;102990.72;;;5.27;59.86
17785;BME280;9016;53.582;10.062;2023-03-01T04:19:02;102990.72;;;5.28;59.00
17785;BME280;9016;53.582;10.062;2023-03-01T04:21:33;102983.69;;;5.27;59.45
17785;BME280;9016;53.582;10.062;2023-03-01T04:24:03;102986.31;;;5.32;59.44
17785;BME280;9016;53.582;10.062;2023-03-01T04:26:31;102982.78;;;5.36;58.78
17785;BME280;9016;53.582;10.062;2023-03-01T04:28:59;102981.88;;;5.38;58.83
17785;BME280;9016;53.582;10.062;2023-03-01T04:31:27;102983.63;;;5.44;58.08
17785;BME280;9016;53.582;10.062;2023-03-01T04:34:00;102975.69;;;5.44;58.58
17785;BME280;9016;53.582;10.062;2023-03-01T04:36:32;102985.38;;;5.43;58.21
17785;BME280;9016;53.582;10.062;2023-03-01T04:39:04;102989.78;;;5.44;58.55
17785;BME280;9016;53.582;10.062;2023-03-01T04:41:39;102988.00;;;5.52;58.49
17785;BME280;9016;53.582;10.062;2023-03-01T04:44:07;102983.59;;;5.53;58.40
17785;BME280;9016;53.582;10.062;2023-03-01T04:46:39;102980.94;;;5.56;57.76
17785;BME280;9016;53.582;10.062;2023-03-01T04:49:07;102983.59;;;5.59;57.50
17785;BME280;9016;53.582;10.062;2023-03-01T04:51:39;102990.63;;;5.60;57.71
17785;BME280;9016;53.582;10.062;2023-03-01T04:54:09;102987.09;;;5.59;57.59
17785;BME280;9016;53.582;10.062;2023-03-01T04:56:37;102992.34;;;5.67;57.47
17785;BME280;9016;53.582;10.062;2023-03-01T04:59:05;102985.28;;;5.69;57.40
17785;BME280;9016;53.582;10.062;2023-03-01T05:01:36;102985.28;;;5.69;56.96
17785;BME280;9016;53.582;10.062;2023-03-01T05:04:04;102989.66;;;5.74;57.28
17785;BME280;9016;53.582;10.062;2023-03-01T05:06:33;102980.88;;;5.75;57.29
17785;BME280;9016;53.582;10.062;2023-03-01T05:09:05;102966.78;;;5.66;57.49
17785;BME280;9016;53.582;10.062;2023-03-01T05:11:46;102974.69;;;5.70;56.75
17785;BME280;9016;53.582;10.062;2023-03-01T05:14:14;102972.03;;;5.75;56.73
17785;BME280;9016;53.582;10.062;2023-03-01T05:16:42;102973.78;;;5.77;56.78
17785;BME280;9016;53.582;10.062;2023-03-01T05:19:10;102978.22;;;5.77;57.26
17785;BME280;9016;53.582;10.062;2023-03-01T05:21:41;102979.94;;;5.79;57.33
17785;BME280;9016;53.582;10.062;2023-03-01T05:24:27;102984.34;;;5.85;57.20
17785;BME280;9016;53.582;10.062;2023-03-01T05:26:55;102979.94;;;5.79;56.96
17785;BME280;9016;53.582;10.062;2023-03-01T05:29:26;102985.25;;;5.85;57.16
17785;BME280;9016;53.582;10.062;2023-03-01T05:31:56;102985.22;;;5.88;57.26
17785;BME280;9016;53.582;10.062;2023-03-01T05:34:25;102975.53;;;5.89;56.61
17785;BME280;9016;53.582;10.062;2023-03-01T05:36:54;102986.09;;;5.92;55.91
17785;BME280;9016;53.582;10.062;2023-03-01T05:39:23;102979.94;;;5.91;55.87
17785;BME280;9016;53.582;10.062;2023-03-01T05:41:54;102979.00;;;5.94;55.84
17785;BME280;9016;53.582;10.062;2023-03-01T05:44:23;102978.19;;;5.87;55.95
17785;BME280;9016;53.582;10.062;2023-03-01T05:46:52;102966.72;;;5.90;55.93
17785;BME280;9016;53.582;10.062;2023-03-01T05:49:20;102964.94;;;5.92;55.96
17785;BME280;9016;53.582;10.062;2023-03-01T05:51:52;102956.09;;;5.93;55.59
17785;BME280;9016;53.582;10.062;2023-03-01T05:54:21;102959.63;;;5.93;55.36
17785;BME280;9016;53.582;10.062;2023-03-01T05:56:49;102956.97;;;5.90;54.63
17785;BME280;9016;53.582;10.062;2023-03-01T05:59:18;102960.53;;;5.89;54.82
17785;BME280;9016;53.582;10.062;2023-03-01T06:01:46;102952.63;;;5.86;54.91
17785;BME280;9016;53.582;10.062;2023-03-01T06:04:14;102952.59;;;5.82;55.01
17785;BME280;9016;53.582;10.062;2023-03-01T06:06:42;102957.91;;;5.79;55.20
17785;BME280;9016;53.582;10.062;2023-03-01T06:09:10;102951.75;;;5.75;55.58
17785;BME280;9016;53.582;10.062;2023-03-01T06:11:38;102958.81;;;5.72;56.14
17785;BME280;9016;53.582;10.062;2023-03-01T06:14:08;102950.88;;;5.75;55.90
17785;BME280;9016;53.582;10.062;2023-03-01T06:16:38;102955.25;;;5.76;55.75
17785;BME280;9016;53.582;10.062;2023-03-01T06:19:06;102959.69;;;5.78;55.77
17785;BME280;9016;53.582;10.062;2023-03-01T06:21:34;102957.00;;;5.80;55.74
17785;BME280;9016;53.582;10.062;2023-03-01T06:24:03;102952.63;;;5.76;55.96
17785;BME280;9016;53.582;10.062;2023-03-01T06:26:33;102961.47;;;5.75;56.21
17785;BME280;9016;53.582;10.062;2023-03-01T06:29:01;102946.44;;;5.78;56.60
17785;BME280;9016;53.582;10.062;2023-03-01T06:31:29;102926.22;;;5.70;56.25
17785;BME280;9016;53.582;10.062;2023-03-01T06:33:59;102949.09;;;5.84;56.08
17785;BME280;9016;53.582;10.062;2023-03-01T06:36:27;102960.53;;;5.88;56.15
17785;BME280;9016;53.582;10.062;2023-03-01T06:38:55;102960.50;;;5.91;56.24
17785;BME280;9016;53.582;10.062;2023-03-01T06:41:23;102956.09;;;5.93;56.13
17785;BME280;9016;53.582;10.062;2023-03-01T06:43:52;102964.88;;;6.03;56.32
17785;BME280;9016;53.582;10.062;2023-03-01T06:46:20;102971.03;;;6.05;56.03
17785;BME280;9016;53.582;10.062;2023-03-01T06:48:48;102967.47;;;6.10;55.57
17785;BME280;9016;53.582;10.062;2023-03-01T06:51:20;102975.38;;;6.18;55.82
17785;BME280;9016;53.582;10.062;2023-03-01T06:53:49;102974.44;;;6.20;55.53
17785;BME280;9016;53.582;10.062;2023-03-01T06:56:17;102969.97;;;6.28;54.75
17785;BME280;9016;53.582;10.062;2023-03-01T06:58:45;102979.66;;;6.32;54.55
17785;BME280;9016;53.582;10.062;2023-03-01T07:01:13;102971.78;;;6.22;53.27
17785;BME280;9016;53.582;10.062;2023-03-01T07:03:41;102969.94;;;6.33;53.83
17785;BME280;9016;53.582;10.062;2023-03-01T07:06:10;102967.25;;;6.37;52.48
17785;BME280;9016;53.582;10.062;2023-03-01T07:08:40;102968.09;;;6.44;51.64
17785;BME280;9016;53.582;10.062;2023-03-01T07:11:07;102958.41;;;6.43;51.48
17785;BME280;9016;53.582;10.062;2023-03-01T07:13:35;102959.25;;;6.46;51.72
17785;BME280;9016;53.582;10.062;2023-03-01T07:16:04;102951.22;;;6.55;51.17
17785;BME280;9016;53.582;10.062;2023-03-01T07:18:32;102957.38;;;6.57;51.14
17785;BME280;9016;53.582;10.062;2023-03-01T07:21:04;102952.13;;;6.54;51.11
17785;BME280;9016;53.582;10.062;2023-03-01T07:23:32;102945.97;;;6.49;50.42
17785;BME280;9016;53.582;10.062;2023-03-01T07:26:02;102950.41;;;6.50;52.22
17785;BME280;9016;53.582;10.062;2023-03-01T07:28:33;102946.78;;;6.62;50.67
17785;BME280;9016;53.582;10.062;2023-03-01T07:31:03;102946.72;;;6.69;50.89
17785;BME280;9016;53.582;10.062;2023-03-01T07:33:31;102942.31;;;6.65;50.84
17785;BME280;9016;53.582;10.062;2023-03-01T07:36:00;102941.28;;;6.80;50.69
17785;BME280;9016;53.582;10.062;2023-03-01T07:38:29;102943.84;;;6.89;50.78
17785;BME280;9016;53.582;10.062;2023-03-01T07:40:58;102943.72;;;7.03;50.53
17785;BME280;9016;53.582;10.062;2023-03-01T07:43:28;102933.91;;;7.11;50.55
17785;BME280;9016;53.582;10.062;2023-03-01T07:45:58;102943.56;;;7.15;51.19
17785;BME280;9016;53.582;10.062;2023-03-01T07:48:26;102950.69;;;7.11;51.91
17785;BME280;9016;53.582;10.062;2023-03-01T07:50:54;102943.56;;;7.16;52.19
17785;BME280;9016;53.582;10.062;2023-03-01T07:53:22;102950.59;;;7.19;51.61
17785;BME280;9016;53.582;10.062;2023-03-01T07:56:00;102940.66;;;7.39;52.36
17785;BME280;9016;53.582;10.062;2023-03-01T07:58:29;102937.09;;;7.40;52.07
17785;BME280;9016;53.582;10.062;2023-03-01T08:01:01;102931.72;;;7.44;52.07
17785;BME280;9016;53.582;10.062;2023-03-01T08:03:29;102932.63;;;7.42;51.98
17785;BME280;9016;53.582;10.062;2023-03-01T08:05:59;102945.97;;;7.37;51.82
17785;BME280;9016;53.582;10.062;2023-03-01T08:08:28;102952.97;;;7.44;52.35
17785;BME280;9016;53.582;10.062;2023-03-01T08:10:57;102958.97;;;7.57;52.63
17785;BME280;9016;53.582;10.062;2023-03-01T08:13:25;102954.50;;;7.60;52.10
17785;BME280;9016;53.582;10.062;2023-03-01T08:15:59;102947.28;;;7.71;51.71
17785;BME280;9016;53.582;10.062;2023-03-01T08:18:27;102957.88;;;7.73;52.46
17785;BME280;9016;53.582;10.062;2023-03-01T08:20:56;102965.00;;;7.71;52.02
17785;BME280;9016;53.582;10.062;2023-03-01T08:23:28;102955.22;;;7.76;52.18
17785;BME280;9016;53.582;10.062;2023-03-01T08:26:03;102949.72;;;7.88;51.72
17785;BME280;9016;53.582;10.062;2023-03-01T08:28:33;102954.97;;;7.92;51.90
17785;BME280;9016;53.582;10.062;2023-03-01T08:31:02;102954.81;;;8.03;51.87
17785;BME280;9016;53.582;10.062;2023-03-01T08:33:30;102957.34;;;8.12;50.93
17785;BME280;9016;53.582;10.062;2023-03-01T08:36:05;102943.03;;;8.22;51.71
17785;BME280;9016;53.582;10.062;2023-03-01T08:38:34;102951.69;;;8.36;51.91
17785;BME280;9016;53.582;10.062;2023-03-01T08:41:03;102947.19;;;8.40;51.62
17785;BME280;9016;53.582;10.062;2023-03-01T08:43:31;102949.72;;;8.47;50.98
17785;BME280;9016;53.582;10.062;2023-03-01T08:45:59;102946.22;;;8.45;50.73
17785;BME280;9016;53.582;10.062;2023-03-01T08:48:29;102947.75;;;8.60;50.73
17785;BME280;9016;53.582;10.062;2023-03-01T08:51:07;102945.22;;;8.54;50.98
17785;BME280;9016;53.582;10.062;2023-03-01T08:53:35;102950.38;;;8.63;50.97
17785;BME280;9016;53.582;10.062;2023-03-01T08:56:04;102949.31;;;8.71;50.84
17785;BME280;9016;53.582;10.062;2023-03-01T08:58:32;102951.09;;;8.72;51.33
17785;BME280;9016;53.582;10.062;2023-03-01T09:01:00;102952.75;;;8.78;51.29
17785;BME280;9016;53.582;10.062;2023-03-01T09:03:29;102954.47;;;8.80;50.71
17785;BME280;9016;53.582;10.062;2023-03-01T09:06:00;102959.88;;;8.74;51.48
17785;BME280;9016;53.582;10.062;2023-03-01T09:08:30;102955.13;;;8.93;51.22
17785;BME280;9016;53.582;10.062;2023-03-01T09:11:01;102958.56;;;8.99;51.61
17785;BME280;9016;53.582;10.062;2023-03-01T09:13:29;102949.56;;;9.07;50.98
17785;BME280;9016;53.582;10.062;2023-03-01T09:15:59;102952.13;;;8.62;51.70
17785;BME280;9016;53.582;10.062;2023-03-01T09:18:29;102953.78;;;8.69;52.33
17785;BME280;9016;53.582;10.062;2023-03-01T09:21:02;102960.50;;;8.90;51.19
17785;BME280;9016;53.582;10.062;2023-03-01T09:23:34;102955.91;;;8.99;52.05
17785;BME280;9016;53.582;10.062;2023-03-01T09:26:05;102961.06;;;9.09;51.42
17785;BME280;9016;53.582;10.062;2023-03-01T09:28:35;102952.00;;;9.17;51.44
17785;BME280;9016;53.582;10.062;2023-03-01T09:31:04;102956.38;;;9.21;51.79
17785;BME280;9016;53.582;10.062;2023-03-01T09:33:33;102953.63;;;9.26;51.57
17785;BME280;9016;53.582;10.062;2023-03-01T09:36:03;102955.09;;;9.40;51.24
17785;BME280;9016;53.582;10.062;2023-03-01T09:38:31;102952.59;;;9.33;51.37
17785;BME280;9016;53.582;10.062;2023-03-01T09:41:00;102955.91;;;9.44;51.37
17785;BME280;9016;53.582;10.062;2023-03-01T09:43:33;102952.28;;;9.48;51.95
17785;BME280;9016;53.582;10.062;2023-03-01T09:46:09;102958.41;;;9.53;51.99
17785;BME280;9016;53.582;10.062;2023-03-01T09:48:44;102957.53;;;9.51;50.98
17785;BME280;9016;53.582;10.062;2023-03-01T09:51:17;102953.97;;;9.52;50.82
17785;BME280;9016;53.582;10.062;2023-03-01T09:53:46;102949.28;;;9.64;50.99
17785;BME280;9016;53.582;10.062;2023-03-01T09:56:19;102947.44;;;9.68;50.93
17785;BME280;9016;53.582;10.062;2023-03-01T09:58:53;102959.78;;;9.72;51.08
17785;BME280;9016;53.582;10.062;2023-03-01T10:01:28;102962.56;;;9.66;51.00
17785;BME280;9016;53.582;10.062;2023-03-01T10:04:11;102960.19;;;9.51;51.34
17785;BME280;9016;53.582;10.062;2023-03-01T10:06:45;102958.28;;;9.15;52.75
17785;BME280;9016;53.582;10.062;2023-03-01T10:09:19;102948.88;;;8.95;53.87
17785;BME280;9016;53.582;10.062;2023-03-01T10:11:50;102945.50;;;8.86;54.55
17785;BME280;9016;53.582;10.062;2023-03-01T10:14:28;102946.59;;;8.76;54.50
17785;BME280;9016;53.582;10.062;2023-03-01T10:17:03;102947.47;;;8.75;54.93
17785;BME280;9016;53.582;10.062;2023-03-01T10:19:36;102953.81;;;8.68;55.71
17785;BME280;9016;53.582;10.062;2023-03-01T10:22:13;102956.41;;;8.72;54.71
17785;BME280;9016;53.582;10.062;2023-03-01T10:24:45;102951.13;;;8.69;55.46
17785;BME280;9016;53.582;10.062;2023-03-01T10:27:19;102949.25;;;8.76;55.55
17785;BME280;9016;53.582;10.062;2023-03-01T10:30:02;102949.19;;;8.79;55.49
17785;BME280;9016;53.582;10.062;2023-03-01T10:32:34;102947.50;;;8.73;56.20
17785;BME280;9016;53.582;10.062;2023-03-01T10:35:16;102939.44;;;8.79;56.35
17785;BME280;9016;53.582;10.062;2023-03-01T10:38:03;102942.28;;;8.67;56.40
17785;BME280;9016;53.582;10.062;2023-03-01T10:40:31;102941.25;;;8.77;56.04
17785;BME280;9016;53.582;10.062;2023-03-01T10:43:04;102937.72;;;8.75;56.50
17785;BME280;9016;53.582;10.062;2023-03-01T10:45:35;102943.03;;;8.77;56.73
17785;BME280;9016;53.582;10.062;2023-03-01T10:48:12;102943.63;;;8.91;57.19
17785;BME280;9016;53.582;10.062;2023-03-01T10:50:47;102940.13;;;8.90;57.35
17785;BME280;9016;53.582;10.062;2023-03-01T10:53:25;102948.81;;;8.98;56.82
17785;BME280;9016;53.582;10.062;2023-03-01T10:56:03;102945.66;;;8.78;57.76
17785;BME280;9016;53.582;10.062;2023-03-01T10:58:34;102941.28;;;8.76;57.94
17785;BME280;9016;53.582;10.062;2023-03-01T11:01:05;102944.00;;;8.71;58.43
17785;BME280;9016;53.582;10.062;2023-03-01T11:03:35;102928.94;;;8.72;57.86
17785;BME280;9016;53.582;10.062;2023-03-01T11:06:20;102922.78;;;8.70;58.81
17785;BME280;9016;53.582;10.062;2023-03-01T11:08:49;102918.38;;;8.67;59.13
17785;BME280;9016;53.582;10.062;2023-03-01T11:11:29;102921.91;;;8.68;58.76
17785;BME280;9016;53.582;10.062;2023-03-01T11:14:04;102919.41;;;8.59;59.26
17785;BME280;9016;53.582;10.062;2023-03-01T11:17:01;102915.78;;;8.64;59.55
17785;BME280;9016;53.582;10.062;2023-03-01T11:19:30;102918.53;;;8.58;60.21
17785;BME280;9016;53.582;10.062;2023-03-01T11:22:07;102911.44;;;8.59;60.25
17785;BME280;9016;53.582;10.062;2023-03-01T11:24:39;102916.56;;;8.69;59.75
17785;BME280;9016;53.582;10.062;2023-03-01T11:27:16;102918.16;;;8.79;59.53
17785;BME280;9016;53.582;10.062;2023-03-01T11:29:51;102917.31;;;8.77;59.82
17785;BME280;9016;53.582;10.062;2023-03-01T11:32:23;102911.06;;;8.81;59.76
17785;BME280;9016;53.582;10.062;2023-03-01T11:34:57;102901.19;;;8.86;59.97
17785;BME280;9016;53.582;10.062;2023-03-01T11:37:34;102900.22;;;8.92;59.76
17785;BME280;9016;53.582;10.062;2023-03-01T11:40:13;102898.34;;;8.95;59.79
17785;BME280;9016;53.582;10.062;2023-03-01T11:45:47;102895.78;;;8.92;59.98
17785;BME280;9016;53.582;10.062;2023-03-01T11:48:38;102887.47;;;9.09;59.34
17785;BME280;9016;53.582;10.062;2023-03-01T11:51:21;102894.41;;;9.16;59.47
17785;BME280;9016;53.582;10.062;2023-03-01T11:54:17;102889.19;;;9.10;59.30
17785;BME280;9016;53.582;10.062;2023-03-01T11:56:52;102888.25;;;9.14;59.89
17785;BME280;9016;53.582;10.062;2023-03-01T11:59:53;102886.38;;;9.18;58.90
17785;BME280;9016;53.582;10.062;2023-03-01T12:09:01;102869.50;;;9.20;59.68
17785;BME280;9016;53.582;10.062;2023-03-01T12:11:41;102875.44;;;9.33;58.99
17785;BME280;9016;53.582;10.062;2023-03-01T12:14:26;102880.63;;;9.39;59.81
17785;BME280;9016;53.582;10.062;2023-03-01T12:17:14;102875.16;;;9.45;58.51
17785;BME280;9016;53.582;10.062;2023-03-01T12:20:11;102874.16;;;9.50;59.08
17785;BME280;9016;53.582;10.062;2023-03-01T12:22:54;102870.69;;;9.47;58.91
17785;BME280;9016;53.582;10.062;2023-03-01T12:25:48;102870.03;;;9.36;59.54
17785;BME280;9016;53.582;10.062;2023-03-01T12:28:34;102866.13;;;9.52;58.71
17785;BME280;9016;53.582;10.062;2023-03-01T12:34:30;102859.63;;;9.65;58.56
17785;BME280;9016;53.582;10.062;2023-03-01T12:37:19;102856.13;;;9.64;57.62
17785;BME280;9016;53.582;10.062;2023-03-01T12:40:03;102843.66;;;9.66;57.93
17785;BME280;9016;53.582;10.062;2023-03-01T12:42:47;102832.91;;;9.69;58.24
17785;BME280;9016;53.582;10.062;2023-03-01T12:45:38;102828.25;;;9.79;58.50
17785;BME280;9016;53.582;10.062;2023-03-01T12:48:20;102830.56;;;9.92;58.56
17785;BME280;9016;53.582;10.062;2023-03-01T12:50:52;102819.53;;;10.09;58.25
17785;BME280;9016;53.582;10.062;2023-03-01T12:53:24;102819.34;;;10.17;57.55
17785;BME280;9016;53.582;10.062;2023-03-01T12:55:54;102812.13;;;10.22;57.86
17785;BME280;9016;53.582;10.062;2023-03-01T12:58:28;102815.59;;;10.24;57.37
17785;BME280;9016;53.582;10.062;2023-03-01T13:01:18;102804.03;;;10.25;56.95
17785;BME280;9016;53.582;10.062;2023-03-01T13:06:55;102809.28;;;10.28;57.12
17785;BME280;9016;53.582;10.062;2023-03-01T13:09:31;102802.16;;;10.28;57.86
17785;BME280;9016;53.582;10.062;2023-03-01T13:12:02;102798.38;;;10.38;56.94
17785;BME280;9016;53.582;10.062;2023-03-01T13:14:46;102794.09;;;10.31;57.23
17785;BME280;9016;53.582;10.062;2023-03-01T13:17:31;102792.25;;;10.33;57.55
17785;BME280;9016;53.582;10.062;2023-03-01T13:20:00;102796.03;;;10.25;57.66
17785;BME280;9016;53.582;10.062;2023-03-01T13:22:32;102788.75;;;10.31;57.00
17785;BME280;9016;53.582;10.062;2023-03-01T13:25:16;102785.94;;;10.37;57.27
17785;BME280;9016;53.582;10.062;2023-03-01T13:27:47;102788.66;;;10.36;57.14
17785;BME280;9016;53.582;10.062;2023-03-01T13:30:42;102791.22;;;10.39;57.72
17785;BME280;9016;53.582;10.062;2023-03-01T13:33:42;102790.56;;;10.31;55.62
17785;BME280;9016;53.582;10.062;2023-03-01T13:36:47;102780.59;;;10.37;56.41
17785;BME280;9016;53.582;10.062;2023-03-01T13:39:27;102771.72;;;10.38;56.80
17785;BME280;9016;53.582;10.062;2023-03-01T13:42:01;102778.66;;;10.44;57.42
17785;BME280;9016;53.582;10.062;2023-03-01T13:44:33;102772.50;;;10.42;57.30
17785;BME280;9016;53.582;10.062;2023-03-01T13:47:16;102764.44;;;10.43;56.78